Time;durP1;ratioP1;P1;durP2;ratioP2;P2;SDS_P1;SDS_P2;PMS_P1;PMS_P2;Temp;Humidity;BMP_temperature;BMP_pressure;BME280_temperature;BME280_humidity;BME280_pressure;Samples;Min_cycle;Max_cycle;Signal;HPM_P1;HPM_P2
2023/01/04 00:01:50;;;;;;;7.18;3.58;;;;;;;6.65;100.00;101970.59;5074115;28;20021;-80
2023/01/04 00:04:15;;;;;;;11.52;3.75;;;;;;;6.62;100.00;101952.41;5073732;28;20514;-80
2023/01/04 00:06:40;;;;;;;11.48;3.85;;;;;;;6.64;100.00;101955.00;5073004;28;20041;-81
2023/01/04 00:09:06;;;;;;;20.67;4.63;;;;;;;6.63;100.00;101935.16;5073526;28;20533;-81
2023/01/04 00:11:32;;;;;;;15.82;4.22;;;;;;;6.64;100.00;101947.25;5073782;28;20456;-81
2023/01/04 00:14:00;;;;;;;21.17;4.53;;;;;;;6.67;100.00;101942.09;5073807;28;20036;-81
2023/01/04 00:16:27;;;;;;;12.20;4.20;;;;;;;6.68;100.00;101936.94;5072547;28;20024;-81
2023/01/04 00:18:54;;;;;;;14.63;4.82;;;;;;;6.67;100.00;101936.91;5073246;28;20028;-81
2023/01/04 00:21:28;;;;;;;14.23;5.43;;;;;;;6.67;100.00;101931.72;5072775;28;21128;-81
2023/01/04 00:23:56;;;;;;;10.68;5.30;;;;;;;6.71;100.00;101930.94;5073915;28;20033;-81
2023/01/04 00:26:27;;;;;;;13.07;4.60;;;;;;;6.71;100.00;101910.19;5072968;28;20025;-81
2023/01/04 00:28:58;;;;;;;18.63;5.30;;;;;;;6.67;100.00;101906.72;5073560;28;20109;-81
2023/01/04 00:31:24;;;;;;;13.05;4.68;;;;;;;6.70;100.00;101896.38;5073229;28;20074;-81
2023/01/04 00:33:54;;;;;;;9.00;4.90;;;;;;;6.73;100.00;101908.47;5073015;28;20021;-81
2023/01/04 00:36:20;;;;;;;14.82;4.97;;;;;;;6.71;100.00;101889.47;5072488;28;20065;-81
2023/01/04 00:38:45;;;;;;;12.18;4.68;;;;;;;6.74;100.00;101879.13;5068092;28;20080;-80
2023/01/04 00:41:11;;;;;;;13.68;5.50;;;;;;;6.77;100.00;101895.56;5071379;28;20060;-80
2023/01/04 00:43:37;;;;;;;11.38;4.95;;;;;;;6.79;100.00;101883.47;5068968;28;20024;-81
2023/01/04 00:46:02;;;;;;;10.98;5.03;;;;;;;6.83;100.00;101876.59;5068595;28;20490;-80
2023/01/04 00:48:29;;;;;;;9.98;5.22;;;;;;;6.83;100.00;101878.31;5071803;28;20039;-81
2023/01/04 00:50:54;;;;;;;14.90;4.95;;;;;;;6.85;100.00;101871.44;5072111;28;20034;-81
2023/01/04 00:53:20;;;;;;;10.27;5.13;;;;;;;6.88;100.00;101866.28;5073040;28;20040;-81
2023/01/04 00:55:45;;;;;;;11.02;4.60;;;;;;;6.92;100.00;101861.13;5072398;28;20434;-80
2023/01/04 00:58:10;;;;;;;10.52;4.50;;;;;;;6.93;100.00;101873.25;5072698;28;20078;-81
2023/01/04 01:00:36;;;;;;;16.23;4.97;;;;;;;6.96;100.00;101869.78;5070579;28;20036;-81
2023/01/04 01:03:01;;;;;;;15.63;5.00;;;;;;;6.90;100.00;101856.75;5068562;28;20072;-81
2023/01/04 01:05:27;;;;;;;10.40;5.28;;;;;;;6.97;100.00;101851.66;5070212;28;20475;-81
2023/01/04 01:07:52;;;;;;;14.82;5.18;;;;;;;7.00;100.00;101846.50;5069706;28;20036;-81
2023/01/04 01:10:18;;;;;;;7.88;5.53;;;;;;;7.03;100.00;101856.91;5071446;28;20052;-82
2023/01/04 01:12:43;;;;;;;17.00;5.05;;;;;;;7.01;100.00;101839.59;5069949;28;20476;-82
2023/01/04 01:15:09;;;;;;;7.50;4.32;;;;;;;7.05;100.00;101843.94;5069799;28;20120;-82
2023/01/04 01:17:35;;;;;;;10.27;5.00;;;;;;;7.02;100.00;101838.72;5067730;28;20040;-81
2023/01/04 01:20:03;;;;;;;6.85;4.65;;;;;;;7.10;100.00;101839.66;5070957;28;20017;-81
2023/01/04 01:22:28;;;;;;;10.68;4.65;;;;;;;7.10;100.00;101842.25;5066744;28;20419;-81
2023/01/04 01:24:53;;;;;;;9.55;5.07;;;;;;;7.12;100.00;101839.66;5060983;28;20047;-81
2023/01/04 01:27:19;;;;;;;8.30;4.47;;;;;;;7.12;100.00;101835.31;5072107;28;20480;-81
2023/01/04 01:29:44;;;;;;;12.93;5.40;;;;;;;7.16;100.00;101839.69;5070558;28;20032;-81
2023/01/04 01:32:09;;;;;;;7.95;4.15;;;;;;;7.11;100.00;101822.38;5059335;28;20058;-81
2023/01/04 01:34:35;;;;;;;12.27;5.22;;;;;;;6.92;100.00;101790.25;5070075;28;20043;-81
2023/01/04 01:37:01;;;;;;;10.70;5.00;;;;;;;7.18;100.00;101837.09;5070871;28;20028;-81
2023/01/04 01:39:27;;;;;;;8.88;4.03;;;;;;;7.17;100.00;101827.59;5056949;28;20065;-80
2023/01/04 01:41:52;;;;;;;12.00;4.90;;;;;;;7.19;100.00;101824.16;5070790;28;20114;-81
2023/01/04 01:44:45;;;;;;;9.35;4.38;;;;;;;7.20;100.00;101807.72;5070737;28;20024;-80
2023/01/04 01:47:21;;;;;;;8.57;4.32;;;;;;;7.22;100.00;101811.19;5062217;28;20028;-80
2023/01/04 01:49:50;;;;;;;11.68;4.90;;;;;;;7.20;100.00;101812.91;5064723;28;20035;-81
2023/01/04 01:52:21;;;;;;;9.48;4.93;;;;;;;7.25;100.00;101821.56;5056352;28;20077;-81
2023/01/04 01:54:54;;;;;;;11.93;4.72;;;;;;;7.25;100.00;101812.94;5071737;28;20120;-80
2023/01/04 01:57:24;;;;;;;8.82;4.50;;;;;;;7.19;100.00;101802.53;5071487;28;20029;-80
2023/01/04 01:59:54;;;;;;;8.07;4.18;;;;;;;7.27;100.00;101825.06;5068984;28;20388;-80
2023/01/04 02:02:19;;;;;;;7.88;4.22;;;;;;;7.21;100.00;101798.22;5067111;28;20259;-81
2023/01/04 02:04:49;;;;;;;8.95;4.22;;;;;;;7.27;100.00;101803.44;5067858;28;20411;-81
2023/01/04 02:07:18;;;;;;;9.73;4.47;;;;;;;7.30;100.00;101807.78;5069382;28;20041;-81
2023/01/04 02:09:45;;;;;;;9.52;4.03;;;;;;;7.30;100.00;101789.63;5064815;28;20028;-80
2023/01/04 02:12:11;;;;;;;6.53;4.40;;;;;;;7.35;100.00;101806.06;5071081;28;20108;-80
2023/01/04 02:14:38;;;;;;;7.00;4.18;;;;;;;7.34;100.00;101825.09;5068008;28;20108;-81
2023/01/04 02:17:15;;;;;;;5.53;3.80;;;;;;;7.37;100.00;101806.97;5071142;28;20059;-81
2023/01/04 02:20:21;;;;;;;5.65;3.90;;;;;;;7.40;100.00;101817.34;5062843;28;20032;-81
2023/01/04 02:23:02;;;;;;;6.88;3.55;;;;;;;7.42;100.00;101813.03;5056597;28;20047;-81
2023/01/04 02:26:05;;;;;;;7.30;4.00;;;;;;;7.42;100.00;101819.09;5065985;28;20039;-81
2023/01/04 02:28:51;;;;;;;8.32;4.10;;;;;;;7.44;100.00;101816.50;5045631;28;20514;-81
2023/01/04 02:31:32;;;;;;;8.68;3.63;;;;;;;7.46;100.00;101813.06;5055468;28;20029;-81
2023/01/04 02:34:28;;;;;;;7.35;4.00;;;;;;;7.49;100.00;101799.25;5063594;28;20033;-81
2023/01/04 02:37:07;;;;;;;6.13;3.40;;;;;;;7.52;100.00;101807.03;5060895;28;20443;-81
2023/01/04 02:40:02;;;;;;;7.70;3.75;;;;;;;7.54;100.00;101791.47;5066657;28;20020;-81
2023/01/04 02:45:47;;;;;;;5.30;3.20;;;;;;;7.60;100.00;101766.41;5072867;28;20162;-81
2023/01/04 02:50:59;;;;;;;5.85;3.72;;;;;;;7.64;100.00;101772.47;5071617;28;20047;-81
2023/01/04 02:53:33;;;;;;;7.85;3.92;;;;;;;7.65;100.00;101749.13;5073981;28;20074;-81
2023/01/04 02:56:08;;;;;;;7.68;3.90;;;;;;;7.69;100.00;101752.59;5069507;28;20472;-81
2023/01/04 02:58:36;;;;;;;4.93;3.30;;;;;;;7.70;100.00;101757.78;5071046;28;20090;-81
2023/01/04 03:07:00;;;;;;;5.32;3.30;;;;;;;7.72;100.00;101731.84;5071579;28;20105;-81
2023/01/04 03:09:29;;;;;;;7.05;3.70;;;;;;;7.72;100.00;101734.44;5067741;28;20025;-81
2023/01/04 03:15:00;;;;;;;8.30;4.47;;;;;;;7.77;100.00;101721.47;5056807;28;20134;-81
2023/01/04 03:17:34;;;;;;;5.63;3.75;;;;;;;7.80;100.00;101716.28;5070961;28;20020;-81
2023/01/04 03:20:01;;;;;;;6.45;3.70;;;;;;;7.81;100.00;101718.00;5072782;28;20036;-81
2023/01/04 03:36:41;;;;;;;7.22;4.60;;;;;;;7.94;100.00;101719.75;5066698;28;20048;-81
2023/01/04 03:50:44;;;;;;;9.50;5.18;;;;;;;8.01;100.00;101694.66;5071505;28;20031;-81
2023/01/04 03:53:12;;;;;;;10.48;5.63;;;;;;;8.04;100.00;101672.16;5068050;28;20025;-81
2023/01/04 03:55:39;;;;;;;7.47;4.97;;;;;;;8.06;100.00;101690.34;5073991;28;20063;-81
2023/01/04 03:58:05;;;;;;;10.20;5.32;;;;;;;8.09;100.00;101687.75;5061995;28;20033;-81
2023/01/04 04:00:31;;;;;;;6.95;5.70;;;;;;;8.04;100.00;101669.56;5070497;28;20047;-81
2023/01/04 04:03:06;;;;;;;9.45;5.22;;;;;;;8.05;100.00;101675.66;5072645;28;20144;-81
2023/01/04 04:08:30;;;;;;;8.05;5.60;;;;;;;8.10;100.00;101669.56;5069991;28;20059;-81
2023/01/04 04:13:46;;;;;;;8.93;6.15;;;;;;;8.20;100.00;101654.84;5070257;28;20110;-80
2023/01/04 04:16:11;;;;;;;9.15;5.93;;;;;;;8.20;100.00;101655.69;5064773;28;20021;-81
2023/01/04 04:18:36;;;;;;;7.68;5.60;;;;;;;8.10;100.00;101637.53;5072646;28;20051;-81
2023/01/04 04:21:02;;;;;;;9.63;5.88;;;;;;;8.23;100.00;101648.78;5065092;28;20109;-81
2023/01/04 04:23:27;;;;;;;9.88;6.07;;;;;;;8.19;100.00;101640.13;5064590;28;20083;-80
2023/01/04 04:25:52;;;;;;;9.82;6.03;;;;;;;8.16;100.00;101637.53;5065626;28;20376;-80
2023/01/04 04:28:17;;;;;;;9.63;6.70;;;;;;;8.21;100.00;101630.63;5064361;28;20033;-81
2023/01/04 04:30:43;;;;;;;10.05;6.40;;;;;;;8.26;100.00;101647.03;5073571;28;20020;-81
2023/01/04 04:33:08;;;;;;;8.57;6.15;;;;;;;8.24;100.00;101640.13;5073995;28;20028;-80
2023/01/04 04:35:33;;;;;;;12.00;6.10;;;;;;;8.30;100.00;101634.91;5067766;28;20115;-80
2023/01/04 04:37:59;;;;;;;11.65;6.47;;;;;;;8.29;100.00;101625.41;5069578;28;20468;-81
2023/01/04 04:43:08;;;;;;;9.57;6.18;;;;;;;8.33;100.00;101611.53;5070811;28;20087;-81
2023/01/04 04:45:33;;;;;;;11.38;6.70;;;;;;;8.35;100.00;101615.00;5073220;28;20488;-81
2023/01/04 04:47:58;;;;;;;9.90;6.50;;;;;;;8.37;100.00;101615.84;5072808;28;20040;-81
2023/01/04 04:50:24;;;;;;;14.23;7.15;;;;;;;8.38;100.00;101599.44;5069641;28;20035;-81
2023/01/04 04:52:49;;;;;;;10.63;6.82;;;;;;;8.47;100.00;101606.31;5070126;28;20044;-81
2023/01/04 04:55:14;;;;;;;15.90;6.47;;;;;;;8.49;100.00;101608.06;5056693;28;20112;-81
2023/01/04 04:57:39;;;;;;;10.65;6.25;;;;;;;8.48;100.00;101597.69;5072787;28;20033;-81
2023/01/04 05:00:07;;;;;;;11.65;7.03;;;;;;;8.53;100.00;101601.13;5067574;28;20021;-81
2023/01/04 05:02:32;;;;;;;12.55;6.85;;;;;;;8.59;100.00;101595.91;5057287;28;20028;-81
2023/01/04 05:04:57;;;;;;;10.15;6.65;;;;;;;8.58;100.00;101595.03;5058341;28;20031;-81
2023/01/04 05:07:22;;;;;;;10.48;5.97;;;;;;;8.61;100.00;101608.03;5057567;28;20045;-81
2023/01/04 05:09:48;;;;;;;12.35;6.63;;;;;;;8.60;100.00;101590.72;5058109;28;20120;-81
2023/01/04 05:14:57;;;;;;;;;;;;;;;8.62;100.00;101595.91;5065819;28;20452;-81
2023/01/04 05:17:22;;;;;;;9.63;5.70;;;;;;;8.62;100.00;101580.31;5071898;28;19916;-81
2023/01/04 05:19:47;;;;;;;10.18;6.50;;;;;;;8.59;100.00;101578.56;5072385;28;20299;-81
2023/01/04 05:22:13;;;;;;;9.40;5.68;;;;;;;8.64;100.00;101579.44;5069869;28;20099;-81
2023/01/04 05:24:38;;;;;;;8.90;6.13;;;;;;;8.67;100.00;101574.22;5067224;28;20040;-81
2023/01/04 05:27:03;;;;;;;9.50;6.07;;;;;;;8.66;100.00;101577.72;5070396;28;20218;-81
2023/01/04 05:32:12;;;;;;;;;;;;;;;8.73;100.00;101575.06;5070128;28;20036;-80
2023/01/04 05:34:37;;;;;;;8.40;5.47;;;;;;;8.75;100.00;101575.91;5067215;28;19920;-80
2023/01/04 05:37:03;;;;;;;11.95;5.93;;;;;;;8.76;100.00;101572.44;5067326;28;20035;-81
2023/01/04 05:39:29;;;;;;;13.73;5.30;;;;;;;8.78;100.00;101565.50;5058287;28;20060;-80
2023/01/04 05:44:38;;;;;;;;;;;;;;;8.83;100.00;101559.44;5069373;28;20048;-81
2023/01/04 05:47:04;;;;;;;8.27;5.03;;;;;;;8.86;100.00;101558.53;5068474;28;19921;-81
2023/01/04 05:49:29;;;;;;;8.50;5.20;;;;;;;8.85;100.00;101570.66;5071965;28;20290;-81
2023/01/04 05:51:54;;;;;;;8.38;5.47;;;;;;;8.79;100.00;101546.44;5069217;28;20028;-81
2023/01/04 05:54:19;;;;;;;10.13;5.57;;;;;;;8.88;100.00;101565.44;5066613;28;20103;-81
2023/01/04 05:56:45;;;;;;;11.15;5.22;;;;;;;8.88;100.00;101556.78;5065663;28;20020;-80
2023/01/04 05:59:10;;;;;;;11.50;5.25;;;;;;;8.86;100.00;101553.31;5071183;28;20452;-81
2023/01/04 06:01:35;;;;;;;8.90;5.07;;;;;;;8.84;100.00;101536.88;5066465;28;20107;-81
2023/01/04 06:04:01;;;;;;;8.75;5.10;;;;;;;8.88;100.00;101536.00;5065534;28;20028;-81
2023/01/04 06:06:26;;;;;;;11.82;5.28;;;;;;;8.89;100.00;101542.91;5063925;28;20050;-81
2023/01/04 06:08:51;;;;;;;8.50;4.57;;;;;;;8.93;100.00;101555.03;5072275;28;20029;-81
2023/01/04 06:11:16;;;;;;;8.18;4.72;;;;;;;8.96;100.00;101559.34;5067939;28;20044;-81
2023/01/04 06:13:42;;;;;;;5.70;5.00;;;;;;;9.01;100.00;101555.84;5068687;28;20020;-81
2023/01/04 06:16:07;;;;;;;11.73;5.30;;;;;;;9.03;100.00;101559.31;5067049;28;20037;-80
2023/01/04 06:18:32;;;;;;;8.60;4.65;;;;;;;8.98;100.00;101558.47;5065850;28;20024;-81
2023/01/04 06:20:58;;;;;;;8.27;4.57;;;;;;;9.03;100.00;101556.72;5071956;28;20463;-80
2023/01/04 06:23:23;;;;;;;7.63;4.88;;;;;;;9.03;100.00;101555.88;5057197;28;20025;-81
2023/01/04 06:25:48;;;;;;;13.57;5.30;;;;;;;9.03;100.00;101561.91;5062664;28;20017;-81
2023/01/04 06:28:13;;;;;;;7.05;5.32;;;;;;;9.03;100.00;101554.13;5068082;28;20028;-81
2023/01/04 06:30:39;;;;;;;10.40;5.63;;;;;;;9.04;100.00;101553.25;5067447;28;20082;-81
2023/01/04 06:33:04;;;;;;;7.65;4.93;;;;;;;9.06;100.00;101535.03;5062452;28;20024;-81
2023/01/04 06:35:29;;;;;;;9.55;5.38;;;;;;;9.06;100.00;101535.91;5059069;28;20476;-81
2023/01/04 06:37:54;;;;;;;13.18;5.50;;;;;;;9.02;100.00;101523.75;5066556;28;20028;-81
2023/01/04 06:40:20;;;;;;;7.55;5.07;;;;;;;9.03;100.00;101516.84;5070236;28;20085;-81
2023/01/04 06:42:45;;;;;;;11.95;5.03;;;;;;;9.02;100.00;101526.34;5064141;28;20468;-81
2023/01/04 06:45:12;;;;;;;8.30;5.45;;;;;;;9.07;100.00;101547.16;5067835;28;20028;-81
2023/01/04 06:47:40;;;;;;;7.07;4.97;;;;;;;9.10;100.00;101547.16;5069445;28;20028;-81
2023/01/04 06:50:06;;;;;;;6.53;4.95;;;;;;;9.06;100.00;101541.09;5067648;28;20392;-81
2023/01/04 06:52:32;;;;;;;11.65;5.45;;;;;;;9.11;100.00;101548.84;5069137;28;20137;-81
2023/01/04 06:54:57;;;;;;;7.57;5.53;;;;;;;9.09;100.00;101553.19;5068001;28;20490;-81
2023/01/04 06:57:23;;;;;;;6.85;5.55;;;;;;;9.14;100.00;101554.03;5061327;28;20020;-81
2023/01/04 06:59:48;;;;;;;8.48;5.50;;;;;;;9.13;100.00;101537.59;5069405;28;20024;-81
2023/01/04 07:02:15;;;;;;;7.78;5.43;;;;;;;9.16;100.00;101541.91;5070784;28;20468;-81
2023/01/04 07:04:40;;;;;;;7.47;5.25;;;;;;;9.16;100.00;101522.84;5069838;28;20048;-81
2023/01/04 07:07:06;;;;;;;9.90;5.22;;;;;;;9.13;100.00;101529.78;5066569;28;20473;-81
2023/01/04 07:09:31;;;;;;;10.57;5.47;;;;;;;9.16;100.00;101528.91;5066154;28;20544;-81
2023/01/04 07:11:57;;;;;;;9.65;5.95;;;;;;;9.24;100.00;101549.66;5063463;28;20035;-81
2023/01/04 07:14:22;;;;;;;8.07;5.30;;;;;;;9.24;100.00;101488.06;5056349;28;20423;-81
2023/01/04 07:16:48;;;;;;;11.35;5.57;;;;;;;9.22;100.00;101488.94;5063572;28;20116;-81
2023/01/04 07:19:13;;;;;;;8.25;4.88;;;;;;;9.30;100.00;101511.44;5069899;28;20031;-81
2023/01/04 07:21:38;;;;;;;7.85;4.70;;;;;;;9.34;100.00;101514.88;5073229;28;20067;-81
2023/01/04 07:24:04;;;;;;;7.10;4.50;;;;;;;9.36;100.00;101511.41;5065789;28;20066;-82
2023/01/04 07:26:29;;;;;;;7.43;4.18;;;;;;;9.35;100.00;101509.69;5073364;28;20154;-81
2023/01/04 07:31:38;;;;;;;4.40;3.50;;;;;;;9.33;100.00;101487.13;5068199;28;20101;-81
2023/01/04 07:34:03;;;;;;;4.97;3.42;;;;;;;9.31;100.00;101486.28;5087745;28;20016;-80
2023/01/04 07:36:29;;;;;;;10.38;3.33;;;;;;;9.28;100.00;101481.09;5070536;28;20522;-81
2023/01/04 07:38:54;;;;;;;4.57;2.92;;;;;;;9.33;100.00;101495.81;5065646;28;20063;-81
2023/01/04 07:41:19;;;;;;;5.07;2.85;;;;;;;9.37;100.00;101471.47;5070293;28;20029;-80
2023/01/04 07:43:45;;;;;;;5.78;2.90;;;;;;;9.37;100.00;101483.63;5073815;28;20016;-81
2023/01/04 07:46:10;;;;;;;5.25;2.72;;;;;;;9.35;100.00;101496.66;5069488;28;20112;-81
2023/01/04 07:48:35;;;;;;;6.07;3.78;;;;;;;9.31;100.00;101481.06;5066541;28;20045;-81
2023/01/04 07:51:01;;;;;;;5.20;2.60;;;;;;;9.37;100.00;101488.84;5071321;28;20028;-81
2023/01/04 07:53:26;;;;;;;4.90;2.80;;;;;;;9.37;100.00;101468.88;5080098;28;20553;-81
2023/01/04 07:55:56;;;;;;;9.38;3.10;;;;;;;9.37;100.00;101484.50;5066104;28;20070;-81
2023/01/04 07:58:21;;;;;;;8.75;3.47;;;;;;;9.42;100.00;101484.47;5069069;28;20066;-81
2023/01/04 08:00:47;;;;;;;6.15;3.28;;;;;;;9.42;100.00;101486.19;5070600;28;20024;-81
2023/01/04 08:03:12;;;;;;;8.48;3.00;;;;;;;9.46;100.00;101478.34;5071321;28;20510;-80
2023/01/04 08:05:37;;;;;;;6.57;3.20;;;;;;;9.45;100.00;101466.22;5065213;28;20118;-80
2023/01/04 08:08:03;;;;;;;7.78;3.10;;;;;;;9.52;100.00;101477.44;5067775;28;20090;-80
2023/01/04 08:10:28;;;;;;;8.65;3.15;;;;;;;9.51;100.00;101479.16;5058448;28;20071;-80
2023/01/04 08:12:53;;;;;;;8.60;3.13;;;;;;;9.50;100.00;101477.44;5065268;28;20345;-81
2023/01/04 08:15:19;;;;;;;8.35;3.65;;;;;;;9.51;100.00;101489.56;5067314;28;20040;-80
2023/01/04 08:17:44;;;;;;;7.88;2.90;;;;;;;9.49;100.00;101483.53;5073032;28;20024;-79
2023/01/04 08:20:10;;;;;;;8.18;3.22;;;;;;;9.48;100.00;101484.41;5073013;28;20024;-82
2023/01/04 08:22:35;;;;;;;8.07;2.92;;;;;;;9.58;100.00;101496.47;5074904;28;20586;-82
2023/01/04 08:25:00;;;;;;;6.95;3.00;;;;;;;9.54;100.00;101481.72;5060566;28;20029;-80
2023/01/04 08:27:26;;;;;;;5.20;2.83;;;;;;;9.57;100.00;101486.91;5060849;28;20380;-82
2023/01/04 08:29:51;;;;;;;7.25;2.90;;;;;;;9.59;100.00;101498.19;5065467;28;20366;-79
2023/01/04 08:32:16;;;;;;;7.68;2.60;;;;;;;9.60;100.00;101481.69;5068232;28;20047;-79
2023/01/04 08:34:41;;;;;;;10.02;3.40;;;;;;;9.65;100.00;101478.19;5064503;28;20472;-79
2023/01/04 08:37:07;;;;;;;5.50;2.70;;;;;;;9.54;100.00;101468.72;5062515;28;20490;-79
2023/01/04 08:39:34;;;;;;;5.32;2.80;;;;;;;9.67;100.00;101505.06;5071929;28;20032;-79
2023/01/04 08:42:00;;;;;;;7.22;2.88;;;;;;;9.73;100.00;101497.19;5056726;28;20025;-78
2023/01/04 08:44:26;;;;;;;8.52;2.95;;;;;;;9.74;100.00;101498.91;5071677;28;20108;-78
2023/01/04 08:46:52;;;;;;;6.55;3.60;;;;;;;9.78;100.00;101503.25;5067924;28;20101;-80
2023/01/04 08:49:19;;;;;;;8.00;2.95;;;;;;;9.80;100.00;101489.31;5069342;28;20020;-79
2023/01/04 08:51:45;;;;;;;8.70;2.63;;;;;;;9.73;100.00;101492.00;5072164;28;20539;-80
2023/01/04 08:54:11;;;;;;;9.85;2.70;;;;;;;9.80;100.00;101502.31;5064124;28;20040;-79
2023/01/04 08:56:37;;;;;;;7.38;2.58;;;;;;;9.79;100.00;101498.00;5061593;28;20104;-79
2023/01/04 08:59:03;;;;;;;6.80;2.63;;;;;;;9.88;100.00;101507.47;5066808;28;20043;-80
2023/01/04 09:01:30;;;;;;;5.20;2.25;;;;;;;9.89;100.00;101511.78;5071821;28;20028;-80
2023/01/04 09:03:56;;;;;;;10.07;2.75;;;;;;;9.95;100.00;101524.75;5070315;28;20117;-80
2023/01/04 09:06:22;;;;;;;2.67;2.00;;;;;;;9.98;100.00;101513.47;5062194;28;20072;-80
2023/01/04 09:08:47;;;;;;;3.97;2.20;;;;;;;9.98;100.00;101518.66;5070428;28;20028;-81
2023/01/04 09:11:17;;;;;;;5.25;2.40;;;;;;;9.98;100.00;101511.72;5068196;28;20460;-81
2023/01/04 09:13:44;;;;;;;6.28;2.20;;;;;;;9.99;100.00;101484.78;5068221;28;20031;-80
2023/01/04 09:16:12;;;;;;;7.75;2.17;;;;;;;10.01;100.00;101488.25;5064091;28;20046;-81
2023/01/04 09:18:38;;;;;;;5.40;2.03;;;;;;;10.06;100.00;101511.63;5059763;28;20039;-80
2023/01/04 09:21:12;;;;;;;3.15;2.20;;;;;;;10.05;100.00;101505.56;5063505;28;20021;-80
2023/01/04 09:23:38;;;;;;;3.45;2.00;;;;;;;9.98;100.00;101497.81;5068497;28;20104;-81
2023/01/04 09:26:05;;;;;;;3.13;2.00;;;;;;;10.02;100.00;101505.59;5068100;28;20078;-80
2023/01/04 09:28:31;;;;;;;5.90;2.00;;;;;;;9.97;100.00;101496.97;5057650;28;20025;-80
2023/01/04 09:30:56;;;;;;;6.55;2.85;;;;;;;9.95;100.00;101484.84;5065641;28;20112;-80
2023/01/04 09:33:21;;;;;;;5.40;2.30;;;;;;;9.90;100.00;101487.47;5058722;28;20025;-80
2023/01/04 09:35:46;;;;;;;5.13;2.45;;;;;;;9.96;100.00;101504.78;5068089;28;20023;-80
2023/01/04 09:38:12;;;;;;;6.10;2.90;;;;;;;9.99;100.00;101526.44;5071999;28;20459;-80
2023/01/04 09:41:11;;;;;;;5.85;2.40;;;;;;;9.99;100.00;101518.63;5057314;28;20048;-80
2023/01/04 09:43:45;;;;;;;9.35;3.20;;;;;;;9.99;100.00;101513.44;5058553;28;20028;-80
2023/01/04 09:46:17;;;;;;;6.28;2.92;;;;;;;9.98;100.00;101509.09;5071961;28;20047;-80
2023/01/04 09:48:45;;;;;;;9.25;3.40;;;;;;;9.97;100.00;101502.19;5056566;28;20056;-80
2023/01/04 09:51:17;;;;;;;4.15;3.17;;;;;;;9.98;100.00;101516.91;5063288;28;20072;-81
2023/01/04 09:53:51;;;;;;;8.60;3.50;;;;;;;10.00;100.00;101511.69;5069163;28;20043;-81
2023/01/04 09:56:22;;;;;;;9.48;4.03;;;;;;;10.01;100.00;101503.88;5064177;28;20020;-81
2023/01/04 09:58:49;;;;;;;9.95;4.25;;;;;;;10.05;100.00;101502.09;5070191;28;20038;-81
2023/01/04 10:01:22;;;;;;;6.32;3.65;;;;;;;10.02;100.00;101497.75;5066395;28;20035;-81
2023/01/04 10:04:00;;;;;;;10.15;3.75;;;;;;;10.07;100.00;101496.00;5064357;28;20098;-81
2023/01/04 10:06:32;;;;;;;10.77;4.07;;;;;;;10.07;100.00;101493.38;5059128;28;20472;-81
2023/01/04 10:09:02;;;;;;;10.38;4.20;;;;;;;10.10;100.00;101502.88;5059382;28;20085;-81
2023/01/04 10:11:41;;;;;;;8.70;4.25;;;;;;;10.13;100.00;101504.59;5066336;28;20071;-80
2023/01/04 10:14:19;;;;;;;10.13;4.60;;;;;;;10.09;100.00;101475.97;5053970;28;20166;-81
2023/01/04 10:16:52;;;;;;;10.52;4.95;;;;;;;10.14;100.00;101498.53;5062041;28;20033;-81
2023/01/04 10:19:49;;;;;;;11.18;5.50;;;;;;;10.16;100.00;101481.13;5064684;28;20124;-81
2023/01/04 10:22:18;;;;;;;12.55;5.07;;;;;;;10.17;100.00;101490.66;5065171;28;20098;-81
2023/01/04 10:24:49;;;;;;;7.95;4.50;;;;;;;10.16;100.00;101491.53;5065028;28;20562;-81
2023/01/04 10:27:49;;;;;;;13.20;5.32;;;;;;;10.17;100.00;101477.63;5069508;28;20078;-81
2023/01/04 10:30:48;;;;;;;11.10;4.97;;;;;;;10.19;100.00;101487.16;5068237;28;20395;-81
2023/01/04 10:33:20;;;;;;;8.65;5.15;;;;;;;10.17;100.00;101493.25;5065137;28;20045;-81
2023/01/04 10:35:47;;;;;;;6.97;4.47;;;;;;;10.16;100.00;101479.38;5070584;28;20031;-80
2023/01/04 10:38:22;;;;;;;9.57;5.03;;;;;;;10.13;100.00;101476.78;5065693;28;20116;-81
2023/01/04 10:40:49;;;;;;;10.77;5.15;;;;;;;10.18;100.00;101482.84;5068962;28;20116;-81
2023/01/04 10:43:14;;;;;;;9.85;4.85;;;;;;;10.22;100.00;101475.84;5062008;28;20025;-81
2023/01/04 10:45:50;;;;;;;13.48;4.55;;;;;;;10.23;100.00;101468.00;5064175;28;20090;-81
2023/01/04 10:48:31;;;;;;;10.27;4.47;;;;;;;10.22;100.00;101471.47;5065531;28;20063;-81
2023/01/04 10:51:02;;;;;;;9.27;4.47;;;;;;;10.17;100.00;101457.66;5057667;28;20025;-81
2023/01/04 10:53:35;;;;;;;9.68;4.65;;;;;;;10.25;100.00;101457.56;5066911;28;20028;-81
2023/01/04 10:56:11;;;;;;;7.82;4.07;;;;;;;10.22;100.00;101455.84;5062112;28;20025;-81
2023/01/04 10:59:08;;;;;;;12.45;4.45;;;;;;;10.24;100.00;101466.28;5068467;28;20040;-81
2023/01/04 11:01:39;;;;;;;10.13;3.80;;;;;;;10.25;100.00;101461.03;5057531;28;20028;-81
2023/01/04 11:04:31;;;;;;;9.27;4.32;;;;;;;10.25;100.00;101463.63;5063249;28;20055;-82
2023/01/04 11:07:07;;;;;;;6.55;3.72;;;;;;;10.25;100.00;101460.16;5065326;28;20036;-81
2023/01/04 11:09:42;;;;;;;5.38;3.75;;;;;;;10.27;100.00;101458.44;5057641;28;20477;-81
2023/01/04 11:12:11;;;;;;;6.72;3.08;;;;;;;10.26;100.00;101461.91;5074389;28;20060;-81
2023/01/04 11:14:36;;;;;;;6.55;3.30;;;;;;;10.26;100.00;101456.69;5074628;28;20392;-82
2023/01/04 11:17:06;;;;;;;9.80;4.10;;;;;;;10.27;100.00;101461.91;5070156;28;20021;-81
2023/01/04 11:19:33;;;;;;;6.88;3.33;;;;;;;10.27;100.00;101467.13;5068933;28;20032;-81
2023/01/04 11:22:39;;;;;;;4.22;3.03;;;;;;;10.27;100.00;101464.53;5069784;28;20051;-82
2023/01/04 11:25:11;;;;;;;7.05;3.03;;;;;;;10.29;100.00;101470.56;5065316;28;20571;-83
2023/01/04 11:27:45;;;;;;;6.93;2.88;;;;;;;10.32;100.00;101459.25;5058101;28;20024;-81
2023/01/04 11:30:14;;;;;;;;;;;;;;;10.31;100.00;101462.72;5072221;28;20032;-81
2023/01/04 11:32:46;;;;;;;3.00;2.30;;;;;;;10.30;100.00;101469.69;5061753;28;19920;-81
2023/01/04 11:35:11;;;;;;;3.55;2.70;;;;;;;10.31;100.00;101463.59;5074222;28;20035;-81
2023/01/04 11:37:39;;;;;;;5.45;2.80;;;;;;;10.32;100.00;101470.53;5074193;28;20021;-81
2023/01/04 11:40:26;;;;;;;4.53;2.60;;;;;;;10.28;100.00;101468.84;5073460;28;20028;-81
2023/01/04 11:43:10;;;;;;;3.13;2.13;;;;;;;10.28;100.00;101466.22;5070566;28;20595;-81
2023/01/04 11:45:35;;;;;;;3.30;2.20;;;;;;;10.27;100.00;101466.28;5068400;28;20063;-81
2023/01/04 11:48:05;;;;;;;2.92;2.22;;;;;;;10.24;100.00;101464.53;5074506;28;20017;-81
2023/01/04 11:50:39;;;;;;;5.20;2.20;;;;;;;10.33;100.00;101458.34;5073034;28;20531;-81
2023/01/04 11:53:25;;;;;;;4.32;2.30;;;;;;;10.33;100.00;101471.38;5070337;28;20104;-81
2023/01/04 11:55:52;;;;;;;3.20;2.33;;;;;;;10.32;100.00;101469.66;5069757;28;20021;-81
2023/01/04 11:58:18;;;;;;;4.55;2.10;;;;;;;10.32;100.00;101467.91;5072143;28;20154;-81
2023/01/04 12:00:54;;;;;;;2.42;1.90;;;;;;;10.32;100.00;101478.34;5073056;28;20111;-81
2023/01/04 12:03:31;;;;;;;3.63;1.90;;;;;;;10.20;100.00;101457.63;5064612;28;20079;-80
2023/01/04 12:05:57;;;;;;;3.30;2.08;;;;;;;10.28;100.00;101463.63;5065894;28;20035;-81
2023/01/04 12:08:32;;;;;;;2.05;1.85;;;;;;;10.37;100.00;101475.69;5074001;28;20115;-81
2023/01/04 12:11:00;;;;;;;3.08;2.05;;;;;;;10.38;100.00;101471.34;5063817;28;20111;-79
2023/01/04 12:13:26;;;;;;;3.05;1.85;;;;;;;10.36;100.00;101463.53;5071071;28;20033;-80
2023/01/04 12:16:18;;;;;;;3.15;1.80;;;;;;;10.38;100.00;101485.22;5066301;28;20385;-80
2023/01/04 12:18:44;;;;;;;1.95;1.70;;;;;;;10.39;100.00;101460.03;5057819;28;20369;-81
2023/01/04 12:21:20;;;;;;;3.65;1.65;;;;;;;10.28;100.00;101465.38;5073693;28;20032;-80
2023/01/04 12:23:46;;;;;;;1.85;1.67;;;;;;;10.35;100.00;101467.03;5070599;28;20024;-80
2023/01/04 12:26:13;;;;;;;1.77;1.40;;;;;;;10.42;100.00;101476.47;5064478;28;20086;-80
2023/01/04 12:28:45;;;;;;;2.70;1.42;;;;;;;10.43;100.00;101470.41;5069270;28;20032;-80
2023/01/04 12:31:19;;;;;;;1.98;1.30;;;;;;;10.40;100.00;101473.06;5072288;28;20426;-81